createdAt,value
2017-03-30T00:00:01.453Z,0
2017-03-30T00:01:02.681Z,0
2017-03-30T00:02:03.899Z,0
2017-03-30T00:03:05.166Z,0
2017-03-30T00:04:06.393Z,0
2017-03-30T00:05:07.710Z,0
2017-03-30T00:06:08.968Z,0
2017-03-30T00:07:10.206Z,0
2017-03-30T00:08:11.461Z,0
2017-03-30T00:09:12.734Z,0
2017-03-30T00:10:13.988Z,0
2017-03-30T00:11:15.238Z,0
2017-03-30T00:12:16.502Z,0
2017-03-30T00:13:17.714Z,0
2017-03-30T00:14:18.977Z,0
2017-03-30T00:15:20.193Z,0
2017-03-30T00:16:21.481Z,0
2017-03-30T00:17:22.724Z,0
2017-03-30T00:18:24.070Z,0
2017-03-30T00:19:25.298Z,0
2017-03-30T00:20:26.553Z,0
2017-03-30T00:21:27.784Z,0
2017-03-30T00:22:29.025Z,0
2017-03-30T00:23:30.286Z,0
2017-03-30T00:24:31.531Z,0
2017-03-30T00:25:32.775Z,0
2017-03-30T00:26:34.021Z,0
2017-03-30T00:27:35.287Z,0
2017-03-30T00:28:36.526Z,0
2017-03-30T00:29:37.778Z,0
2017-03-30T00:30:39.086Z,0
2017-03-30T00:31:40.326Z,0
2017-03-30T00:32:41.593Z,0
2017-03-30T00:33:42.803Z,0
2017-03-30T00:34:44.034Z,0
2017-03-30T00:35:45.417Z,0
2017-03-30T00:36:46.658Z,0
2017-03-30T00:37:47.903Z,0
2017-03-30T00:38:49.166Z,0
2017-03-30T00:39:50.375Z,0
2017-03-30T00:40:51.614Z,0
2017-03-30T00:41:52.857Z,0
2017-03-30T00:42:54.201Z,0
2017-03-30T00:43:55.469Z,0
2017-03-30T00:44:56.713Z,0
2017-03-30T00:45:57.947Z,0
2017-03-30T00:46:59.188Z,0
2017-03-30T00:48:00.572Z,0
2017-03-30T00:49:01.811Z,0
2017-03-30T00:50:03.125Z,0
2017-03-30T00:51:04.372Z,0
2017-03-30T00:52:05.606Z,0
2017-03-30T00:53:06.892Z,0
2017-03-30T00:54:08.089Z,0
2017-03-30T00:55:09.349Z,0
2017-03-30T00:56:10.585Z,0
2017-03-30T00:57:11.837Z,0
2017-03-30T00:58:13.072Z,0
2017-03-30T00:59:14.320Z,0
2017-03-30T01:00:15.646Z,0
2017-03-30T01:01:16.877Z,0
2017-03-30T01:02:18.142Z,0
2017-03-30T01:03:19.497Z,0
2017-03-30T01:04:20.714Z,0
2017-03-30T01:05:21.952Z,0
2017-03-30T01:06:23.192Z,0
2017-03-30T01:07:24.441Z,0
2017-03-30T01:08:25.675Z,0
2017-03-30T01:09:27.005Z,0
2017-03-30T01:10:28.252Z,0
2017-03-30T01:11:29.491Z,0
2017-03-30T01:12:30.730Z,0
2017-03-30T01:13:31.955Z,0
2017-03-30T01:14:33.366Z,0
2017-03-30T01:15:34.576Z,0
2017-03-30T01:16:35.843Z,0
2017-03-30T01:17:37.086Z,0
2017-03-30T01:18:38.312Z,0
2017-03-30T01:19:39.635Z,0
2017-03-30T01:20:40.802Z,0
2017-03-30T01:21:42.063Z,0
2017-03-30T01:22:43.303Z,0
2017-03-30T01:23:44.541Z,0
2017-03-30T01:24:45.778Z,0
2017-03-30T01:25:47.020Z,0
2017-03-30T01:26:48.266Z,0
2017-03-30T01:27:49.534Z,0
2017-03-30T01:28:50.884Z,0
2017-03-30T01:29:52.159Z,0
2017-03-30T01:30:53.388Z,0
2017-03-30T01:31:54.643Z,0
2017-03-30T01:32:55.948Z,0
2017-03-30T01:33:57.196Z,0
2017-03-30T01:34:58.433Z,0
2017-03-30T01:35:59.670Z,0
2017-03-30T01:37:00.911Z,0
2017-03-30T01:38:02.144Z,0
2017-03-30T01:39:03.392Z,0
2017-03-30T01:40:04.627Z,0
2017-03-30T01:41:05.962Z,0
2017-03-30T01:42:07.276Z,0
2017-03-30T01:43:08.513Z,0
2017-03-30T01:44:09.793Z,0
2017-03-30T01:45:11.055Z,0
2017-03-30T01:46:12.352Z,0
2017-03-30T01:47:13.609Z,0
2017-03-30T01:48:14.848Z,0
2017-03-30T01:49:16.099Z,0
2017-03-30T01:50:17.356Z,0
2017-03-30T01:51:18.700Z,0
2017-03-30T01:52:19.946Z,0
2017-03-30T01:53:21.204Z,0
2017-03-30T01:54:22.467Z,0
2017-03-30T01:55:23.706Z,0
2017-03-30T01:56:24.956Z,0
2017-03-30T01:57:26.195Z,0
2017-03-30T01:58:27.511Z,0
2017-03-30T01:59:28.693Z,0
2017-03-30T02:00:29.955Z,0
2017-03-30T02:01:31.199Z,0
2017-03-30T02:02:32.437Z,0
2017-03-30T02:03:33.679Z,0
2017-03-30T02:04:34.925Z,0
2017-03-30T02:05:36.243Z,0
2017-03-30T02:06:37.559Z,0
2017-03-30T02:07:38.802Z,0
2017-03-30T02:08:40.077Z,0
2017-03-30T02:09:41.305Z,0
2017-03-30T02:10:42.551Z,0
2017-03-30T02:11:43.814Z,0
2017-03-30T02:12:45.068Z,0
2017-03-30T02:13:46.313Z,0
2017-03-30T02:14:47.556Z,0
2017-03-30T02:15:48.817Z,0
2017-03-30T02:16:50.067Z,0
2017-03-30T02:17:51.374Z,0
2017-03-30T02:18:52.631Z,0
2017-03-30T02:19:53.875Z,0
2017-03-30T02:20:55.124Z,0
2017-03-30T02:21:56.382Z,0
2017-03-30T02:22:57.752Z,0
2017-03-30T02:23:59.004Z,0
2017-03-30T02:25:00.282Z,0
2017-03-30T02:26:01.529Z,0
2017-03-30T02:27:02.778Z,0
2017-03-30T02:28:04.034Z,0
2017-03-30T02:29:05.280Z,0
2017-03-30T02:30:06.532Z,0
2017-03-30T02:31:07.791Z,0
2017-03-30T02:32:09.020Z,0
2017-03-30T02:33:10.262Z,0
2017-03-30T02:34:11.518Z,0
2017-03-30T02:35:12.751Z,0
2017-03-30T02:36:13.988Z,0
2017-03-30T02:37:15.261Z,0
2017-03-30T02:38:16.478Z,0
2017-03-30T02:39:17.730Z,0
2017-03-30T02:40:19.004Z,0
2017-03-30T02:41:20.213Z,0
2017-03-30T02:42:21.454Z,0
2017-03-30T02:43:22.706Z,0
2017-03-30T02:44:23.992Z,0
2017-03-30T02:45:25.389Z,0
2017-03-30T02:46:26.658Z,0
2017-03-30T02:47:27.903Z,0
2017-03-30T02:48:29.142Z,0
2017-03-30T02:49:30.495Z,0
2017-03-30T02:50:31.855Z,0
2017-03-30T02:51:33.179Z,0
2017-03-30T02:52:34.419Z,0
2017-03-30T02:53:35.656Z,0
2017-03-30T02:54:36.903Z,0
2017-03-30T02:55:38.194Z,0
2017-03-30T02:56:39.549Z,0
2017-03-30T02:57:40.802Z,0
2017-03-30T02:58:42.065Z,0
2017-03-30T02:59:43.305Z,0
2017-03-30T03:00:44.560Z,0
2017-03-30T03:01:45.804Z,0
2017-03-30T03:02:47.059Z,0
2017-03-30T03:03:48.287Z,0
2017-03-30T03:04:49.587Z,0
2017-03-30T03:05:50.856Z,0
2017-03-30T03:06:52.075Z,0
2017-03-30T03:07:53.313Z,0
2017-03-30T03:08:54.559Z,0
2017-03-30T03:09:55.835Z,0
2017-03-30T03:10:57.099Z,0
2017-03-30T03:11:58.331Z,0
2017-03-30T03:12:59.568Z,0
2017-03-30T03:14:00.873Z,0
2017-03-30T03:15:02.089Z,0
2017-03-30T03:16:03.339Z,0
2017-03-30T03:17:04.586Z,0
2017-03-30T03:18:05.876Z,0
2017-03-30T03:19:07.124Z,0
2017-03-30T03:20:08.375Z,0
2017-03-30T03:21:09.626Z,0
2017-03-30T03:22:10.864Z,0
2017-03-30T03:23:12.101Z,0
2017-03-30T03:24:13.380Z,0
2017-03-30T03:25:14.620Z,0
2017-03-30T03:26:15.868Z,0
2017-03-30T03:27:17.103Z,0
2017-03-30T03:28:18.359Z,0
2017-03-30T03:29:19.599Z,0
2017-03-30T03:30:21.063Z,0
2017-03-30T03:31:22.310Z,0
2017-03-30T03:32:23.558Z,0
2017-03-30T03:33:24.790Z,0
2017-03-30T03:34:26.191Z,0
2017-03-30T03:35:27.490Z,0
2017-03-30T03:36:28.731Z,0
2017-03-30T03:37:29.976Z,0
2017-03-30T03:38:31.237Z,0
2017-03-30T03:39:32.531Z,0
2017-03-30T03:40:33.787Z,0
2017-03-30T03:41:35.042Z,0
2017-03-30T03:42:36.261Z,0
2017-03-30T03:43:37.502Z,0
2017-03-30T03:44:38.776Z,0
2017-03-30T03:45:40.014Z,0
2017-03-30T03:46:41.294Z,0
2017-03-30T03:47:42.530Z,0
2017-03-30T03:48:43.770Z,0
2017-03-30T03:49:44.996Z,0
2017-03-30T03:50:46.249Z,0
2017-03-30T03:51:47.498Z,0
2017-03-30T03:52:48.727Z,0
2017-03-30T03:53:50.020Z,0
2017-03-30T03:54:51.280Z,0
2017-03-30T03:55:52.514Z,0
2017-03-30T03:56:53.766Z,0
2017-03-30T03:57:54.983Z,0
2017-03-30T03:58:56.310Z,0
2017-03-30T03:59:57.547Z,0
2017-03-30T04:00:58.788Z,0
2017-03-30T04:02:00.043Z,0
2017-03-30T04:03:01.277Z,0
2017-03-30T04:04:02.555Z,0
2017-03-30T04:05:03.869Z,0
2017-03-30T04:06:05.189Z,0
2017-03-30T04:07:06.366Z,0
2017-03-30T04:08:07.610Z,0
2017-03-30T04:09:08.862Z,0
2017-03-30T04:10:10.086Z,0
2017-03-30T04:11:11.329Z,0
2017-03-30T04:12:12.610Z,0
2017-03-30T04:13:13.870Z,0
2017-03-30T04:14:15.112Z,0
2017-03-30T04:15:16.350Z,0
2017-03-30T04:16:17.583Z,0
2017-03-30T04:17:18.843Z,0
2017-03-30T04:18:20.082Z,0
2017-03-30T04:19:21.532Z,0
2017-03-30T04:20:22.771Z,0
2017-03-30T04:21:24.010Z,0
2017-03-30T04:22:25.249Z,0
2017-03-30T04:23:26.508Z,0
2017-03-30T04:24:27.755Z,0
2017-03-30T04:25:29.110Z,0
2017-03-30T04:26:30.373Z,0
2017-03-30T04:27:31.697Z,0
2017-03-30T04:28:32.933Z,0
2017-03-30T04:29:34.194Z,0
2017-03-30T04:30:35.444Z,0
2017-03-30T04:31:36.688Z,0
2017-03-30T04:32:37.992Z,0
2017-03-30T04:33:39.238Z,0
2017-03-30T04:34:40.471Z,0
2017-03-30T04:35:41.810Z,0
2017-03-30T04:36:43.062Z,0
2017-03-30T04:37:44.342Z,0
2017-03-30T04:38:45.602Z,0
2017-03-30T04:39:46.834Z,0
2017-03-30T04:40:48.070Z,0
2017-03-30T04:41:49.312Z,0
2017-03-30T04:42:50.639Z,0
2017-03-30T04:43:51.876Z,4
2017-03-30T04:44:53.228Z,4
2017-03-30T04:45:54.470Z,4
2017-03-30T04:46:55.712Z,0
2017-03-30T04:47:57.001Z,4
2017-03-30T04:48:58.243Z,4
2017-03-30T04:49:59.617Z,4
2017-03-30T04:51:00.838Z,8
2017-03-30T04:52:02.080Z,4
2017-03-30T04:53:03.320Z,8
2017-03-30T04:54:04.643Z,8
2017-03-30T04:55:05.846Z,8
2017-03-30T04:56:07.081Z,12
2017-03-30T04:57:08.352Z,12
2017-03-30T04:58:09.607Z,12
2017-03-30T04:59:10.852Z,16
2017-03-30T05:00:12.100Z,20
2017-03-30T05:01:13.348Z,24
2017-03-30T05:02:14.588Z,24
2017-03-30T05:03:15.957Z,24
2017-03-30T05:04:17.195Z,32
2017-03-30T05:05:18.433Z,36
2017-03-30T05:06:19.675Z,40
2017-03-30T05:07:20.919Z,44
2017-03-30T05:08:22.209Z,48
2017-03-30T05:09:23.440Z,52
2017-03-30T05:10:24.680Z,56
2017-03-30T05:11:25.918Z,64
2017-03-30T05:12:27.164Z,64
2017-03-30T05:13:28.409Z,68
2017-03-30T05:14:29.688Z,76
2017-03-30T05:15:30.915Z,84
2017-03-30T05:16:32.271Z,88
2017-03-30T05:17:33.541Z,100
2017-03-30T05:18:34.775Z,112
2017-03-30T05:19:36.009Z,124
2017-03-30T05:20:37.250Z,136
2017-03-30T05:21:38.483Z,152
2017-03-30T05:22:39.740Z,164
2017-03-30T05:23:40.976Z,176
2017-03-30T05:24:42.240Z,192
2017-03-30T05:25:43.498Z,208
2017-03-30T05:26:44.750Z,224
2017-03-30T05:27:46.066Z,240
2017-03-30T05:28:47.346Z,252
2017-03-30T05:29:48.607Z,260
2017-03-30T05:30:49.860Z,284
2017-03-30T05:31:51.100Z,316
2017-03-30T05:32:52.353Z,344
2017-03-30T05:33:53.619Z,356
2017-03-30T05:34:54.939Z,364
2017-03-30T05:35:56.145Z,372
2017-03-30T05:36:57.368Z,388
2017-03-30T05:37:58.605Z,412
2017-03-30T05:38:59.869Z,436
2017-03-30T05:40:01.136Z,464
2017-03-30T05:41:02.373Z,480
2017-03-30T05:42:03.673Z,496
2017-03-30T05:43:04.921Z,512
2017-03-30T05:44:06.162Z,532
2017-03-30T05:45:07.399Z,552
2017-03-30T05:46:08.654Z,564
2017-03-30T05:47:09.960Z,588
2017-03-30T05:48:11.210Z,608
2017-03-30T05:49:12.449Z,632
2017-03-30T05:50:13.685Z,652
2017-03-30T05:51:14.942Z,680
2017-03-30T05:52:16.182Z,712
2017-03-30T05:53:17.490Z,740
2017-03-30T05:54:18.687Z,768
2017-03-30T05:55:19.924Z,812
2017-03-30T05:56:21.182Z,860
2017-03-30T05:57:22.436Z,900
2017-03-30T05:58:23.809Z,972
2017-03-30T05:59:25.043Z,1032
2017-03-30T06:00:26.321Z,1112
2017-03-30T06:01:27.581Z,1208
2017-03-30T06:02:28.826Z,1308
2017-03-30T06:03:30.068Z,1360
2017-03-30T06:04:31.332Z,1352
2017-03-30T06:05:32.586Z,1336
2017-03-30T06:06:33.932Z,1368
2017-03-30T06:07:35.170Z,1448
2017-03-30T06:08:36.410Z,1512
2017-03-30T06:09:37.681Z,1552
2017-03-30T06:10:38.930Z,1588
2017-03-30T06:11:40.167Z,1620
2017-03-30T06:12:41.409Z,1624
2017-03-30T06:13:42.667Z,1708
2017-03-30T06:14:43.918Z,1832
2017-03-30T06:15:45.165Z,1928
2017-03-30T06:16:46.412Z,1960
2017-03-30T06:17:47.728Z,1980
2017-03-30T06:18:48.921Z,2064
2017-03-30T06:19:50.310Z,2220
2017-03-30T06:20:51.652Z,2328
2017-03-30T06:21:52.881Z,2412
2017-03-30T06:22:54.141Z,2496
2017-03-30T06:23:55.480Z,2592
2017-03-30T06:24:56.751Z,2644
2017-03-30T06:25:58.030Z,2728
2017-03-30T06:26:59.279Z,2868
2017-03-30T06:28:00.542Z,2964
2017-03-30T06:29:01.865Z,3100
2017-03-30T06:30:03.074Z,3304
2017-03-30T06:31:04.361Z,3604
2017-03-30T06:32:05.602Z,3908
2017-03-30T06:33:06.845Z,4320
2017-03-30T06:34:08.082Z,4748
2017-03-30T06:35:09.331Z,5096
2017-03-30T06:36:10.568Z,5340
2017-03-30T06:37:11.864Z,5540
2017-03-30T06:38:13.106Z,5724
2017-03-30T06:39:14.348Z,5912
2017-03-30T06:40:15.614Z,6008
2017-03-30T06:41:16.903Z,5984
2017-03-30T06:42:18.149Z,5964
2017-03-30T06:43:19.401Z,6020
2017-03-30T06:44:20.640Z,6092
2017-03-30T06:45:21.907Z,6264
2017-03-30T06:46:23.152Z,6472
2017-03-30T06:47:24.398Z,6600
2017-03-30T06:48:25.692Z,6764
2017-03-30T06:49:26.962Z,6868
2017-03-30T06:50:28.253Z,6976
2017-03-30T06:51:29.540Z,7116
2017-03-30T06:52:30.747Z,7604
2017-03-30T06:53:32.070Z,7896
2017-03-30T06:54:33.349Z,8264
2017-03-30T06:55:34.576Z,8208
2017-03-30T06:56:35.824Z,7756
2017-03-30T06:57:37.088Z,6940
2017-03-30T06:58:38.310Z,6116
2017-03-30T06:59:39.560Z,5844
2017-03-30T07:00:40.803Z,6084
2017-03-30T07:01:42.054Z,6200
2017-03-30T07:02:43.318Z,6648
2017-03-30T07:03:44.562Z,7072
2017-03-30T07:04:45.830Z,7712
2017-03-30T07:05:47.047Z,8600
2017-03-30T07:06:48.291Z,9588
2017-03-30T07:07:49.532Z,10468
2017-03-30T07:08:50.778Z,11060
2017-03-30T07:09:52.125Z,11416
2017-03-30T07:10:53.398Z,11604
2017-03-30T07:11:54.616Z,11472
2017-03-30T07:12:55.868Z,11736
2017-03-30T07:13:57.104Z,11100
2017-03-30T07:14:58.527Z,11488
2017-03-30T07:15:59.784Z,11288
2017-03-30T07:17:01.030Z,10916
2017-03-30T07:18:02.291Z,14084
2017-03-30T07:19:03.530Z,11608
2017-03-30T07:20:04.780Z,12196
2017-03-30T07:21:06.043Z,11524
2017-03-30T07:22:07.320Z,10424
2017-03-30T07:23:08.586Z,10032
2017-03-30T07:24:09.863Z,10032
2017-03-30T07:25:11.081Z,10236
2017-03-30T07:26:12.327Z,10612
2017-03-30T07:27:13.632Z,10816
2017-03-30T07:28:14.842Z,11028
2017-03-30T07:29:16.123Z,12032
2017-03-30T07:30:17.368Z,13376
2017-03-30T07:31:18.614Z,14500
2017-03-30T07:32:19.913Z,15420
2017-03-30T07:33:21.153Z,15464
2017-03-30T07:34:22.495Z,15336
2017-03-30T07:35:23.832Z,17632
2017-03-30T07:36:25.028Z,23744
2017-03-30T07:37:26.274Z,21056
2017-03-30T07:38:27.518Z,19232
2017-03-30T07:39:28.878Z,11636
2017-03-30T07:40:30.212Z,9784
2017-03-30T07:41:31.486Z,8800
2017-03-30T07:42:32.745Z,8568
2017-03-30T07:43:34.029Z,9028
2017-03-30T07:44:35.241Z,9000
2017-03-30T07:45:36.492Z,8768
2017-03-30T07:46:37.761Z,8832
2017-03-30T07:47:39.010Z,9408
2017-03-30T07:48:40.265Z,10216
2017-03-30T07:49:41.517Z,10512
2017-03-30T07:50:42.767Z,10728
2017-03-30T07:51:44.034Z,11012
2017-03-30T07:52:45.317Z,11072
2017-03-30T07:53:46.572Z,16000
2017-03-30T07:54:47.824Z,12428
2017-03-30T07:55:49.070Z,12428
2017-03-30T07:56:50.311Z,12356
2017-03-30T07:57:51.593Z,14548
2017-03-30T07:58:52.819Z,12072
2017-03-30T07:59:54.128Z,12496
2017-03-30T08:00:55.452Z,12900
2017-03-30T08:01:56.683Z,12476
2017-03-30T08:02:58.036Z,12532
2017-03-30T08:03:59.254Z,12296
2017-03-30T08:05:00.545Z,11572
2017-03-30T08:06:01.806Z,11024
2017-03-30T08:07:03.078Z,11664
2017-03-30T08:08:04.331Z,11676
2017-03-30T08:09:05.580Z,10960
2017-03-30T08:10:06.890Z,23744
2017-03-30T08:11:08.160Z,16080
2017-03-30T08:12:09.439Z,25344
2017-03-30T08:13:10.692Z,24480
2017-03-30T08:14:11.995Z,15088
2017-03-30T08:15:13.233Z,23648
2017-03-30T08:16:14.528Z,23296
2017-03-30T08:17:15.800Z,24448
2017-03-30T08:18:17.061Z,24096
2017-03-30T08:19:18.339Z,25824
2017-03-30T08:20:19.589Z,27232
2017-03-30T08:21:20.834Z,25024
2017-03-30T08:22:22.098Z,18656
2017-03-30T08:23:23.370Z,18848
2017-03-30T08:24:24.609Z,15304
2017-03-30T08:25:25.924Z,11912
2017-03-30T08:26:27.166Z,14548
2017-03-30T08:27:28.412Z,24352
2017-03-30T08:28:29.673Z,24800
2017-03-30T08:29:30.926Z,24544
2017-03-30T08:30:32.301Z,24736
2017-03-30T08:31:33.658Z,24864
2017-03-30T08:32:34.942Z,25344
2017-03-30T08:33:36.218Z,26080
2017-03-30T08:34:37.511Z,26400
2017-03-30T08:35:38.796Z,26752
2017-03-30T08:36:40.067Z,26624
2017-03-30T08:37:41.314Z,25536
2017-03-30T08:38:42.574Z,26720
2017-03-30T08:39:43.841Z,25664
2017-03-30T08:40:45.093Z,27168
2017-03-30T08:41:46.441Z,27584
2017-03-30T08:42:47.714Z,28128
2017-03-30T08:43:48.943Z,28736
2017-03-30T08:44:50.234Z,29792
2017-03-30T08:45:51.479Z,31360
2017-03-30T08:46:52.755Z,28800
2017-03-30T08:47:54.037Z,36320
2017-03-30T08:48:55.294Z,32192
2017-03-30T08:49:56.547Z,28032
2017-03-30T08:50:57.793Z,23552
2017-03-30T08:51:59.045Z,21600
2017-03-30T08:53:00.302Z,23232
2017-03-30T08:54:01.575Z,25856
2017-03-30T08:55:02.811Z,24704
2017-03-30T08:56:04.168Z,23488
2017-03-30T08:57:05.424Z,23744
2017-03-30T08:58:06.683Z,24480
2017-03-30T08:59:07.937Z,28192
2017-03-30T09:00:09.213Z,27744
2017-03-30T09:01:10.448Z,21056
2017-03-30T09:02:11.688Z,19840
2017-03-30T09:03:12.956Z,20160
2017-03-30T09:04:14.206Z,20000
2017-03-30T09:05:15.486Z,21024
2017-03-30T09:06:16.732Z,24512
2017-03-30T09:07:17.990Z,28544
2017-03-30T09:08:19.251Z,29824
2017-03-30T09:09:20.490Z,36352
2017-03-30T09:10:21.757Z,34144
2017-03-30T09:11:22.990Z,27584
2017-03-30T09:12:24.245Z,32032
2017-03-30T09:13:25.544Z,35712
2017-03-30T09:14:26.805Z,25120
2017-03-30T09:15:28.068Z,37440
2017-03-30T09:16:29.325Z,22944
2017-03-30T09:17:30.554Z,26208
2017-03-30T09:18:31.803Z,24768
2017-03-30T09:19:33.074Z,37344
2017-03-30T09:20:34.420Z,36896
2017-03-30T09:21:35.672Z,36576
2017-03-30T09:22:36.938Z,39296
2017-03-30T09:23:38.244Z,40448
2017-03-30T09:24:39.598Z,34656
2017-03-30T09:25:40.856Z,33312
2017-03-30T09:26:42.136Z,30048
2017-03-30T09:27:43.406Z,31744
2017-03-30T09:28:44.670Z,24832
2017-03-30T09:29:45.935Z,43232
2017-03-30T09:30:47.194Z,19808
2017-03-30T09:31:48.591Z,21888
2017-03-30T09:32:49.840Z,22976
2017-03-30T09:33:51.111Z,42464
2017-03-30T09:34:52.371Z,45472
2017-03-30T09:35:53.603Z,45920
2017-03-30T09:36:54.914Z,48832
2017-03-30T09:37:56.256Z,35808
2017-03-30T09:38:57.612Z,34944
2017-03-30T09:39:58.889Z,33184
2017-03-30T09:41:00.172Z,37472
2017-03-30T09:42:01.435Z,38944
2017-03-30T09:43:02.713Z,39488
2017-03-30T09:44:04.072Z,37536
2017-03-30T09:45:05.319Z,29984
2017-03-30T09:46:06.567Z,27136
2017-03-30T09:47:07.933Z,25056
2017-03-30T09:48:09.094Z,29024
2017-03-30T09:49:10.414Z,24992
2017-03-30T09:50:11.704Z,22432
2017-03-30T09:51:12.979Z,21408
2017-03-30T09:52:14.209Z,23008
2017-03-30T09:53:15.462Z,24256
2017-03-30T09:54:16.717Z,33024
2017-03-30T09:55:17.972Z,44800
2017-03-30T09:56:19.236Z,36960
2017-03-30T09:57:20.488Z,29856
2017-03-30T09:58:21.752Z,55648
2017-03-30T09:59:23.008Z,51776
2017-03-30T10:00:24.267Z,40288
2017-03-30T10:01:25.548Z,44448
2017-03-30T10:02:26.771Z,28032
2017-03-30T10:03:28.035Z,20832
2017-03-30T10:04:29.310Z,77984
2017-03-30T10:05:30.540Z,67840
2017-03-30T10:06:31.805Z,35040
2017-03-30T10:07:33.049Z,63744
2017-03-30T10:08:34.377Z,66592
2017-03-30T10:09:35.636Z,66688
2017-03-30T10:10:36.940Z,70208
2017-03-30T10:11:38.165Z,72896
2017-03-30T10:12:39.413Z,74496
2017-03-30T10:13:40.853Z,73312
2017-03-30T10:14:42.100Z,73440
2017-03-30T10:15:43.382Z,68672
2017-03-30T10:16:44.634Z,69376
2017-03-30T10:17:45.955Z,71744
2017-03-30T10:18:47.176Z,72256
2017-03-30T10:19:48.497Z,76256
2017-03-30T10:20:49.745Z,75840
2017-03-30T10:21:51.001Z,74016
2017-03-30T10:22:52.277Z,69824
2017-03-30T10:23:53.505Z,74080
2017-03-30T10:24:54.785Z,69696
2017-03-30T10:25:56.105Z,57792
2017-03-30T10:26:57.370Z,55392
2017-03-30T10:27:58.641Z,56960
2017-03-30T10:28:59.901Z,56928
2017-03-30T10:30:01.171Z,55456
2017-03-30T10:31:02.438Z,53152
2017-03-30T10:32:03.735Z,49888
2017-03-30T10:33:04.991Z,49760
2017-03-30T10:34:06.253Z,49216
2017-03-30T10:35:07.514Z,49472
2017-03-30T10:36:08.793Z,47808
2017-03-30T10:37:10.052Z,46720
2017-03-30T10:38:11.346Z,52544
2017-03-30T10:39:12.614Z,51072
2017-03-30T10:40:13.954Z,49760
2017-03-30T10:41:15.192Z,51520
2017-03-30T10:42:16.437Z,52992
2017-03-30T10:43:17.699Z,51840
2017-03-30T10:44:18.940Z,52384
2017-03-30T10:45:20.226Z,34048
2017-03-30T10:46:21.488Z,10908
2017-03-30T10:47:22.724Z,9148
2017-03-30T10:48:24.006Z,9104
2017-03-30T10:49:25.543Z,8800
2017-03-30T10:50:26.813Z,8804
2017-03-30T10:51:28.120Z,9068
2017-03-30T10:52:29.372Z,8960
2017-03-30T10:53:30.618Z,8684
2017-03-30T10:54:31.872Z,8492
2017-03-30T10:55:33.125Z,8372
2017-03-30T10:56:34.478Z,8296
2017-03-30T10:57:35.735Z,8260
2017-03-30T10:58:36.986Z,8628
2017-03-30T10:59:38.235Z,9484
2017-03-30T11:00:39.494Z,9452
2017-03-30T11:01:40.783Z,8976
2017-03-30T11:02:42.032Z,8068
2017-03-30T11:03:43.277Z,7460
2017-03-30T11:04:44.541Z,7448
2017-03-30T11:05:45.785Z,7524
2017-03-30T11:06:47.108Z,7568
2017-03-30T11:07:48.432Z,7488
2017-03-30T11:08:49.679Z,7508
2017-03-30T11:09:50.913Z,7356
2017-03-30T11:10:52.242Z,7328
2017-03-30T11:11:53.489Z,7308
2017-03-30T11:12:54.742Z,7356
2017-03-30T11:13:55.998Z,7624
2017-03-30T11:14:57.270Z,7732
2017-03-30T11:15:58.539Z,7696
2017-03-30T11:16:59.796Z,7812
2017-03-30T11:18:01.037Z,7836
2017-03-30T11:19:02.319Z,7840
2017-03-30T11:20:03.588Z,7836
2017-03-30T11:21:04.852Z,8124
2017-03-30T11:22:06.213Z,7880
2017-03-30T11:23:07.456Z,7924
2017-03-30T11:24:08.706Z,8064
2017-03-30T11:25:09.964Z,8160
2017-03-30T11:26:11.266Z,8368
2017-03-30T11:27:12.628Z,8620
2017-03-30T11:28:13.878Z,8788
2017-03-30T11:29:15.156Z,8756
2017-03-30T11:30:16.405Z,8620
2017-03-30T11:31:17.776Z,8364
2017-03-30T11:32:19.025Z,8276
2017-03-30T11:33:20.281Z,8052
2017-03-30T11:34:21.522Z,7884
2017-03-30T11:35:22.785Z,7840
2017-03-30T11:36:24.035Z,7700
2017-03-30T11:37:25.301Z,7796
2017-03-30T11:38:26.582Z,8048
2017-03-30T11:39:27.859Z,8112
2017-03-30T11:40:29.110Z,8108
2017-03-30T11:41:30.360Z,8596
2017-03-30T11:42:31.608Z,8972
2017-03-30T11:43:32.863Z,8916
2017-03-30T11:44:34.134Z,8924
2017-03-30T11:45:35.535Z,8872
2017-03-30T11:46:36.763Z,8608
2017-03-30T11:47:38.019Z,7920
2017-03-30T11:48:39.286Z,7364
2017-03-30T11:49:40.658Z,7952
2017-03-30T11:50:41.952Z,9676
2017-03-30T11:51:43.194Z,11032
2017-03-30T11:52:44.442Z,11132
2017-03-30T11:53:45.699Z,11092
2017-03-30T11:54:46.947Z,10404
2017-03-30T11:55:48.204Z,10000
2017-03-30T11:56:49.487Z,9300
2017-03-30T11:57:50.733Z,8720
2017-03-30T11:58:51.983Z,8344
2017-03-30T11:59:53.231Z,8624
2017-03-30T12:00:54.473Z,8948
2017-03-30T12:01:55.788Z,8480
2017-03-30T12:02:57.037Z,8108
2017-03-30T12:03:58.286Z,8228
2017-03-30T12:04:59.540Z,8392
2017-03-30T12:06:00.789Z,8388
2017-03-30T12:07:02.055Z,8024
2017-03-30T12:08:03.273Z,7592
2017-03-30T12:09:04.535Z,7220
2017-03-30T12:10:05.788Z,6864
2017-03-30T12:11:07.044Z,6664
2017-03-30T12:12:08.292Z,6556
2017-03-30T12:13:09.548Z,6536
2017-03-30T12:14:10.796Z,6436
2017-03-30T12:15:12.065Z,6508
2017-03-30T12:16:13.350Z,6392
2017-03-30T12:17:14.596Z,6128
2017-03-30T12:18:15.862Z,6000
2017-03-30T12:19:17.303Z,5948
2017-03-30T12:20:18.554Z,5904
2017-03-30T12:21:19.813Z,5912
2017-03-30T12:22:21.060Z,5968
2017-03-30T12:23:22.355Z,5900
2017-03-30T12:24:23.590Z,5944
2017-03-30T12:25:24.837Z,5972
2017-03-30T12:26:26.091Z,5916
2017-03-30T12:27:27.339Z,5792
2017-03-30T12:28:28.606Z,5860
2017-03-30T12:29:29.855Z,6000
2017-03-30T12:30:31.100Z,5976
2017-03-30T12:31:32.362Z,5900
2017-03-30T12:32:33.641Z,5992
2017-03-30T12:33:34.870Z,6392
2017-03-30T12:34:36.167Z,6212
2017-03-30T12:35:37.436Z,5900
2017-03-30T12:36:38.665Z,5996
2017-03-30T12:37:39.964Z,6404
2017-03-30T12:38:41.228Z,6440
2017-03-30T12:39:42.483Z,6284
2017-03-30T12:40:43.747Z,5928
2017-03-30T12:41:45.015Z,5776
2017-03-30T12:42:46.360Z,5640
2017-03-30T12:43:47.614Z,5640
2017-03-30T12:44:48.871Z,5684
2017-03-30T12:45:50.145Z,6356
2017-03-30T12:46:51.405Z,5960
2017-03-30T12:47:52.719Z,6012
2017-03-30T12:48:53.941Z,6676
2017-03-30T12:49:55.188Z,6804
2017-03-30T12:50:56.477Z,6572
2017-03-30T12:51:57.764Z,5948
2017-03-30T12:52:59.033Z,5596
2017-03-30T12:54:00.347Z,5488
2017-03-30T12:55:01.601Z,5480
2017-03-30T12:56:02.864Z,5624
2017-03-30T12:57:04.193Z,5876
2017-03-30T12:58:05.443Z,5784
2017-03-30T12:59:06.769Z,5720
2017-03-30T13:00:08.147Z,5732
2017-03-30T13:01:09.407Z,5908
2017-03-30T13:02:10.660Z,6444
2017-03-30T13:03:11.917Z,6992
2017-03-30T13:04:13.164Z,7004
2017-03-30T13:05:14.441Z,6640
2017-03-30T13:06:15.764Z,6136
2017-03-30T13:07:17.009Z,5872
2017-03-30T13:08:18.267Z,5608
2017-03-30T13:09:19.490Z,6036
2017-03-30T13:10:20.756Z,7316
2017-03-30T13:11:22.086Z,7204
2017-03-30T13:12:23.337Z,7088
2017-03-30T13:13:24.580Z,7820
2017-03-30T13:14:25.827Z,8528
2017-03-30T13:15:27.138Z,8928
2017-03-30T13:16:28.463Z,9356
2017-03-30T13:17:29.773Z,9604
2017-03-30T13:18:31.001Z,9980
2017-03-30T13:19:32.260Z,9828
2017-03-30T13:20:33.529Z,9248
2017-03-30T13:21:34.789Z,9744
2017-03-30T13:22:36.089Z,10332
2017-03-30T13:23:37.338Z,10464
2017-03-30T13:24:38.586Z,9884
2017-03-30T13:25:39.850Z,9508
2017-03-30T13:26:41.085Z,8676
2017-03-30T13:27:42.363Z,7528
2017-03-30T13:28:43.618Z,7364
2017-03-30T13:29:44.950Z,8072
2017-03-30T13:30:46.271Z,8072
2017-03-30T13:31:47.474Z,8348
2017-03-30T13:32:48.767Z,8448
2017-03-30T13:33:50.012Z,8132
2017-03-30T13:34:51.283Z,7924
2017-03-30T13:35:52.598Z,7660
2017-03-30T13:36:53.952Z,8340
2017-03-30T13:37:55.176Z,8596
2017-03-30T13:38:56.424Z,8436
2017-03-30T13:39:57.674Z,7788
2017-03-30T13:40:58.965Z,7548
2017-03-30T13:42:00.250Z,7460
2017-03-30T13:43:01.501Z,6972
2017-03-30T13:44:02.761Z,6700
2017-03-30T13:45:04.012Z,6472
2017-03-30T13:46:05.289Z,6616
2017-03-30T13:47:06.679Z,6828
2017-03-30T13:48:07.927Z,7248
2017-03-30T13:49:09.197Z,7840
2017-03-30T13:50:10.468Z,7956
2017-03-30T13:51:11.697Z,8644
2017-03-30T13:52:12.962Z,9448
2017-03-30T13:53:14.342Z,10104
2017-03-30T13:54:15.703Z,9652
2017-03-30T13:55:16.959Z,9588
2017-03-30T13:56:18.217Z,8740
2017-03-30T13:57:19.467Z,7612
2017-03-30T13:58:20.707Z,6840
2017-03-30T13:59:21.992Z,5960
2017-03-30T14:00:23.267Z,5288